createdAt,value
2024-01-26T00:01:43.933Z,1.60
2024-01-26T00:04:11.904Z,1.00
2024-01-26T00:06:39.980Z,2.10
2024-01-26T00:09:10.386Z,1.40
2024-01-26T00:11:39.219Z,1.00
2024-01-26T00:14:08.947Z,1.00
2024-01-26T00:16:37.051Z,1.10
2024-01-26T00:19:08.657Z,1.00
2024-01-26T00:21:37.576Z,1.00
2024-01-26T00:24:06.110Z,1.10
2024-01-26T00:26:34.036Z,1.10
2024-01-26T00:29:01.982Z,1.00
2024-01-26T00:31:30.159Z,0.80
2024-01-26T00:33:58.184Z,0.90
2024-01-26T00:36:26.361Z,1.00
2024-01-26T00:38:54.237Z,0.70
2024-01-26T00:41:22.291Z,0.70
2024-01-26T00:43:50.282Z,0.90
2024-01-26T00:46:18.088Z,0.80
2024-01-26T00:48:46.107Z,0.80
2024-01-26T00:51:14.112Z,0.90
2024-01-26T00:53:42.073Z,0.90
2024-01-26T00:56:10.064Z,0.90
2024-01-26T00:58:38.027Z,0.70
2024-01-26T01:01:06.309Z,0.60
2024-01-26T01:03:34.375Z,0.80
2024-01-26T01:06:02.355Z,0.90
2024-01-26T01:08:30.707Z,1.00
2024-01-26T01:10:58.751Z,0.90
2024-01-26T01:13:26.681Z,1.10
2024-01-26T01:15:54.573Z,0.90
2024-01-26T01:18:22.895Z,1.10
2024-01-26T01:20:50.862Z,1.30
2024-01-26T01:23:18.865Z,0.90
2024-01-26T01:25:46.638Z,0.80
2024-01-26T01:28:15.722Z,1.00
2024-01-26T01:30:43.511Z,1.10
2024-01-26T01:33:11.586Z,0.80
2024-01-26T01:35:40.055Z,1.00
2024-01-26T01:38:07.884Z,1.10
2024-01-26T01:40:35.933Z,0.80
2024-01-26T01:43:03.974Z,0.90
2024-01-26T01:45:32.597Z,1.00
2024-01-26T01:48:00.840Z,0.80
2024-01-26T01:50:28.806Z,0.80
2024-01-26T01:52:57.080Z,0.90
2024-01-26T01:55:25.208Z,1.10
2024-01-26T01:57:54.601Z,1.00
2024-01-26T02:00:22.567Z,0.70
2024-01-26T02:02:50.875Z,1.00
2024-01-26T02:05:20.059Z,0.80
2024-01-26T02:07:51.884Z,1.00
2024-01-26T02:10:20.008Z,1.00
2024-01-26T02:12:47.996Z,0.90
2024-01-26T02:15:15.886Z,1.30
2024-01-26T02:17:43.951Z,0.80
2024-01-26T02:20:11.888Z,1.20
2024-01-26T02:22:40.070Z,1.00
2024-01-26T02:25:08.799Z,1.10
2024-01-26T02:27:37.020Z,1.40
2024-01-26T02:30:06.422Z,1.00
2024-01-26T02:32:34.682Z,1.10
2024-01-26T02:35:02.767Z,1.30
2024-01-26T02:37:30.596Z,1.30
2024-01-26T02:39:58.883Z,1.20
2024-01-26T02:42:26.829Z,1.10
2024-01-26T02:44:55.275Z,0.90
2024-01-26T02:47:23.126Z,1.00
2024-01-26T02:49:51.172Z,1.40
2024-01-26T02:52:19.031Z,1.40
2024-01-26T02:54:46.854Z,1.10
2024-01-26T02:57:14.827Z,1.70
2024-01-26T02:59:42.820Z,1.40
2024-01-26T03:02:10.554Z,1.00
2024-01-26T03:04:38.451Z,0.90
2024-01-26T03:07:06.496Z,1.30
2024-01-26T03:09:34.904Z,0.80
2024-01-26T03:12:02.888Z,0.80
2024-01-26T03:14:30.872Z,0.90
2024-01-26T03:16:58.895Z,0.90
2024-01-26T03:19:26.960Z,1.00
2024-01-26T03:21:54.882Z,1.20
2024-01-26T03:24:22.864Z,0.90
2024-01-26T03:26:50.719Z,0.70
2024-01-26T03:29:18.631Z,1.00
2024-01-26T03:31:46.623Z,0.80
2024-01-26T03:34:14.830Z,0.70
2024-01-26T03:36:42.869Z,0.90
2024-01-26T03:39:11.170Z,1.00
2024-01-26T03:41:42.641Z,1.00
2024-01-26T03:44:12.360Z,0.90
2024-01-26T03:46:43.897Z,0.80
2024-01-26T03:49:11.957Z,0.60
2024-01-26T03:51:40.002Z,0.90
2024-01-26T03:54:08.053Z,0.90
2024-01-26T03:56:36.124Z,0.80
2024-01-26T03:59:03.975Z,1.00
2024-01-26T04:01:31.876Z,0.80
2024-01-26T04:03:59.831Z,0.90
2024-01-26T04:06:27.759Z,0.80
2024-01-26T04:08:57.467Z,0.80
2024-01-26T04:11:25.460Z,0.70
2024-01-26T04:13:53.357Z,0.90
2024-01-26T04:16:21.239Z,0.90
2024-01-26T04:18:49.386Z,0.70
2024-01-26T04:21:20.017Z,0.60
2024-01-26T04:23:48.306Z,1.20
2024-01-26T04:26:16.309Z,0.90
2024-01-26T04:28:44.431Z,0.80
2024-01-26T04:31:12.298Z,2.30
2024-01-26T04:33:41.014Z,3.70
2024-01-26T04:36:09.796Z,3.10
2024-01-26T04:38:38.472Z,5.40
2024-01-26T04:41:06.493Z,4.30
2024-01-26T04:43:34.350Z,5.20
2024-01-26T04:46:02.199Z,3.70
2024-01-26T04:48:30.752Z,2.50
2024-01-26T04:50:59.293Z,1.80
2024-01-26T04:53:27.205Z,1.10
2024-01-26T04:55:55.638Z,1.50
2024-01-26T04:58:23.908Z,1.80
2024-01-26T05:00:52.278Z,1.10
2024-01-26T05:03:20.414Z,1.50
2024-01-26T05:05:48.556Z,1.70
2024-01-26T05:08:16.483Z,3.50
2024-01-26T05:10:44.407Z,4.90
2024-01-26T05:13:12.758Z,3.00
2024-01-26T05:15:40.747Z,2.50
2024-01-26T05:18:10.036Z,2.40
2024-01-26T05:20:38.164Z,2.50
2024-01-26T05:23:06.136Z,1.80
2024-01-26T05:25:33.984Z,1.80
2024-01-26T05:28:01.873Z,1.50
2024-01-26T05:30:29.749Z,1.90
2024-01-26T05:32:57.749Z,1.90
2024-01-26T05:35:25.931Z,1.80
2024-01-26T05:37:53.748Z,1.80
2024-01-26T05:40:22.020Z,2.30
2024-01-26T05:42:49.841Z,1.40
2024-01-26T05:45:18.013Z,1.90
2024-01-26T05:47:46.116Z,1.50
2024-01-26T05:50:15.920Z,1.70
2024-01-26T05:52:43.974Z,1.50
2024-01-26T05:55:11.987Z,1.50
2024-01-26T05:57:39.909Z,1.50
2024-01-26T06:00:08.718Z,1.90
2024-01-26T06:02:39.907Z,1.60
2024-01-26T06:05:08.132Z,1.50
2024-01-26T06:07:36.069Z,1.60
2024-01-26T06:10:04.257Z,1.80
2024-01-26T06:12:32.301Z,1.80
2024-01-26T06:15:00.282Z,2.10
2024-01-26T06:17:28.342Z,1.70
2024-01-26T06:19:56.364Z,1.50
2024-01-26T06:22:24.366Z,1.70
2024-01-26T06:24:52.263Z,1.70
2024-01-26T06:27:20.261Z,3.00
2024-01-26T06:29:48.279Z,3.20
2024-01-26T06:32:17.281Z,2.60
2024-01-26T06:34:45.258Z,2.60
2024-01-26T06:37:13.558Z,2.40
2024-01-26T06:39:41.524Z,2.60
2024-01-26T06:42:09.514Z,2.80
2024-01-26T06:44:37.504Z,3.30
2024-01-26T06:47:05.468Z,2.20
2024-01-26T06:49:33.277Z,2.80
2024-01-26T06:52:01.163Z,2.50
2024-01-26T06:54:29.184Z,1.90
2024-01-26T06:56:57.161Z,2.10
2024-01-26T06:59:25.126Z,1.90
2024-01-26T07:01:53.065Z,2.60
2024-01-26T07:04:21.081Z,2.60
2024-01-26T07:06:49.253Z,2.00
2024-01-26T07:09:17.743Z,1.90
2024-01-26T07:11:45.791Z,2.40
2024-01-26T07:14:16.706Z,3.70
2024-01-26T07:16:45.005Z,4.50
2024-01-26T07:19:13.140Z,5.30
2024-01-26T07:21:41.198Z,4.60
2024-01-26T07:24:09.418Z,4.10
2024-01-26T07:26:38.642Z,4.80
2024-01-26T07:29:06.836Z,5.20
2024-01-26T07:31:34.669Z,3.80
2024-01-26T07:34:03.108Z,4.50
2024-01-26T07:36:32.616Z,2.20
2024-01-26T07:39:00.488Z,2.60
2024-01-26T07:41:28.429Z,2.80
2024-01-26T07:43:56.287Z,2.50
2024-01-26T07:46:24.176Z,2.60
2024-01-26T07:48:52.310Z,3.80
2024-01-26T07:51:20.586Z,4.10
2024-01-26T07:53:48.513Z,3.50
2024-01-26T07:56:16.472Z,7.20
2024-01-26T07:58:44.451Z,5.80
2024-01-26T08:01:13.084Z,4.40
2024-01-26T08:03:41.295Z,6.30
2024-01-26T08:06:10.406Z,5.90
2024-01-26T08:08:38.602Z,6.70
2024-01-26T08:11:06.616Z,8.40
2024-01-26T08:13:35.151Z,5.70
2024-01-26T08:16:03.160Z,3.50
2024-01-26T08:18:31.271Z,2.70
2024-01-26T08:21:00.015Z,2.90
2024-01-26T08:23:28.159Z,3.10
2024-01-26T08:25:56.060Z,2.80
2024-01-26T08:28:24.203Z,2.60
2024-01-26T08:30:52.622Z,2.60
2024-01-26T08:33:21.047Z,2.80
2024-01-26T08:35:49.765Z,2.20
2024-01-26T08:38:18.160Z,1.90
2024-01-26T08:40:46.308Z,2.40
2024-01-26T08:43:14.553Z,2.40
2024-01-26T08:45:42.644Z,2.30
2024-01-26T08:48:11.165Z,2.00
2024-01-26T08:50:40.224Z,1.30
2024-01-26T08:53:08.311Z,2.10
2024-01-26T08:55:36.240Z,1.60
2024-01-26T08:58:04.329Z,1.70
2024-01-26T09:00:32.338Z,2.20
2024-01-26T09:03:00.454Z,1.70
2024-01-26T09:05:28.511Z,1.50
2024-01-26T09:07:57.506Z,1.70
2024-01-26T09:10:25.686Z,1.50
2024-01-26T09:12:53.806Z,1.60
2024-01-26T09:15:22.037Z,2.20
2024-01-26T09:17:50.168Z,1.60
2024-01-26T09:20:18.538Z,2.20
2024-01-26T09:22:46.986Z,1.70
2024-01-26T09:25:15.087Z,1.40
2024-01-26T09:27:43.617Z,1.60
2024-01-26T09:30:11.904Z,1.40
2024-01-26T09:32:40.161Z,1.00
2024-01-26T09:35:11.226Z,1.20
2024-01-26T09:37:40.426Z,1.70
2024-01-26T09:42:38.574Z,1.70
2024-01-26T09:45:07.971Z,2.10
2024-01-26T09:47:36.940Z,2.00
2024-01-26T09:50:05.609Z,2.20
2024-01-26T09:52:38.133Z,2.20
2024-01-26T09:55:06.260Z,1.90
2024-01-26T09:57:34.565Z,2.70
2024-01-26T10:00:03.869Z,1.60
2024-01-26T10:02:33.184Z,1.70
2024-01-26T10:05:01.362Z,2.20
2024-01-26T10:07:29.582Z,1.40
2024-01-26T10:09:57.745Z,1.70
2024-01-26T10:12:26.248Z,1.70
2024-01-26T10:15:05.713Z,1.80
2024-01-26T10:17:34.199Z,1.40
2024-01-26T10:20:10.031Z,2.00
2024-01-26T10:22:39.200Z,1.80
2024-01-26T10:25:12.638Z,1.80
2024-01-26T10:27:41.963Z,1.60
2024-01-26T10:30:12.895Z,1.90
2024-01-26T10:32:42.445Z,2.00
2024-01-26T10:35:22.295Z,1.40
2024-01-26T10:37:52.722Z,1.90
2024-01-26T10:40:21.056Z,1.40
2024-01-26T10:42:49.389Z,1.30
2024-01-26T10:45:17.860Z,1.50
2024-01-26T10:47:46.717Z,2.00
2024-01-26T10:50:14.729Z,1.70
2024-01-26T10:52:43.653Z,1.70
2024-01-26T10:55:12.718Z,1.30
2024-01-26T10:57:40.649Z,1.60
2024-01-26T11:00:10.449Z,1.40
2024-01-26T11:02:38.646Z,1.40
2024-01-26T11:05:11.185Z,1.50
2024-01-26T11:07:40.525Z,1.90
2024-01-26T11:10:25.571Z,1.90
2024-01-26T11:13:04.083Z,1.50
2024-01-26T11:15:32.274Z,1.20
2024-01-26T11:18:00.471Z,1.50
2024-01-26T11:20:32.645Z,1.70
2024-01-26T11:23:08.054Z,1.40
2024-01-26T11:25:37.368Z,1.30
2024-01-26T11:28:06.209Z,1.40
2024-01-26T11:30:36.040Z,1.00
2024-01-26T11:33:15.206Z,1.60
2024-01-26T11:35:43.051Z,1.90
2024-01-26T11:38:10.977Z,1.70
2024-01-26T11:40:38.922Z,1.80
2024-01-26T11:43:07.031Z,1.70
2024-01-26T11:45:45.513Z,2.30
2024-01-26T11:48:14.923Z,2.30
2024-01-26T11:50:44.950Z,2.10
2024-01-26T11:53:17.696Z,3.00
2024-01-26T11:55:46.580Z,2.90
2024-01-26T11:58:16.491Z,3.20
2024-01-26T12:00:44.962Z,2.60
2024-01-26T12:03:14.083Z,2.90
2024-01-26T12:08:10.844Z,5.40
2024-01-26T12:10:39.050Z,2.20
2024-01-26T12:13:10.165Z,2.40
2024-01-26T12:15:41.537Z,2.00
2024-01-26T12:18:12.350Z,2.20
2024-01-26T12:20:42.020Z,2.10
2024-01-26T12:23:17.427Z,2.20
2024-01-26T12:25:45.599Z,2.50
2024-01-26T12:28:16.196Z,2.30
2024-01-26T12:30:48.516Z,2.20
2024-01-26T12:33:17.353Z,2.30
2024-01-26T12:35:47.985Z,2.10
2024-01-26T12:38:16.531Z,2.40
2024-01-26T12:40:44.619Z,2.80
2024-01-26T12:43:15.533Z,2.80
2024-01-26T12:45:43.540Z,2.50
2024-01-26T12:48:11.640Z,2.60
2024-01-26T12:50:39.720Z,3.10
2024-01-26T12:53:07.894Z,3.00
2024-01-26T12:55:39.816Z,3.40
2024-01-26T12:58:08.739Z,2.60
2024-01-26T21:26:06.946Z,15.50
2024-01-26T21:28:37.226Z,15.40
2024-01-26T21:31:09.502Z,15.10
2024-01-26T21:33:41.322Z,15.80
2024-01-26T21:36:16.519Z,15.40
2024-01-26T21:38:50.149Z,15.70
2024-01-26T21:41:24.826Z,14.60
2024-01-26T21:44:04.674Z,16.20
2024-01-26T21:46:33.635Z,14.90
2024-01-26T21:49:08.514Z,16.30
2024-01-26T21:51:47.844Z,15.70
2024-01-26T21:54:25.052Z,14.90
2024-01-26T21:56:57.419Z,15.00
2024-01-26T21:59:28.551Z,15.30
2024-01-26T22:01:58.977Z,15.50
2024-01-26T22:04:27.754Z,14.90
2024-01-26T22:09:28.916Z,15.60
2024-01-26T22:12:00.446Z,15.50
2024-01-26T22:14:29.804Z,16.10
2024-01-26T22:16:59.935Z,15.30
2024-01-26T22:19:29.001Z,15.60
2024-01-26T22:21:57.926Z,14.90
2024-01-26T22:24:28.516Z,16.30
2024-01-26T22:27:00.221Z,15.70
2024-01-26T22:29:28.871Z,15.20
2024-01-26T22:32:00.980Z,15.30
2024-01-26T22:34:32.737Z,15.50
2024-01-26T22:37:05.723Z,14.60
2024-01-26T22:39:36.364Z,16.20
2024-01-26T22:42:05.798Z,14.90
2024-01-26T22:44:35.714Z,15.60
2024-01-26T22:47:04.691Z,12.50
2024-01-26T22:49:34.746Z,12.70
2024-01-26T22:52:04.384Z,13.40
2024-01-26T22:54:36.386Z,12.80
2024-01-26T22:57:05.215Z,13.30
2024-01-26T22:59:35.182Z,14.00
2024-01-26T23:02:03.978Z,14.60
2024-01-26T23:04:32.395Z,16.60
2024-01-26T23:07:01.837Z,16.00
2024-01-26T23:09:30.711Z,15.20
2024-01-26T23:11:59.034Z,10.70
2024-01-26T23:14:27.228Z,15.30
2024-01-26T23:16:55.354Z,15.10
2024-01-26T23:19:25.614Z,12.90
2024-01-26T23:21:55.311Z,13.90
2024-01-26T23:24:23.607Z,11.70
2024-01-26T23:26:51.998Z,10.80
2024-01-26T23:29:20.631Z,10.10
2024-01-26T23:31:48.742Z,7.20
2024-01-26T23:34:17.249Z,7.70
2024-01-26T23:36:45.595Z,6.10
2024-01-26T23:39:14.469Z,4.90
2024-01-26T23:41:42.961Z,4.50
2024-01-26T23:44:11.542Z,4.80
2024-01-26T23:46:39.423Z,4.50
2024-01-26T23:49:07.517Z,4.70
2024-01-26T23:51:35.440Z,4.00
2024-01-26T23:54:03.426Z,4.20
2024-01-26T23:56:31.640Z,2.50
2024-01-26T23:58:59.485Z,2.70
